Fanshawe, Oklahoma
Current Conditions -  °F | °C
As of 3:55 AM on Saturday 25 Oct 2014 (Local Time) from KRKR Reporting Station
Clear Clear  
Wind Chill: 64°   Ceiling: Unl
Heat Index: 64°   Visibility: 10mi
Dew Point: 57°   Wind: 6mph
Humidity: 79%   Direction: 240°WSW
Pressure: 30.08"   Gusts: NA
Location:  34.95°N, 94.91°W
Report Text: KRKR 250855Z AUTO 24005KT 10SM CLR 18/14 A3008 RMK AO2 T01760140
Loading
Personal Weather Stations






























Interactive Weather Map
Tropical Storm Tracking
New forecast layout! Learn more

10-Day Weather Forecast

Advertisements
Track Severe Weather on mobile